Time;durP1;ratioP1;P1;durP2;ratioP2;P2;SDS_P1;SDS_P2;PMS_P1;PMS_P2;Temp;Humidity;BMP_temperature;BMP_pressure;BME280_temperature;BME280_humidity;BME280_pressure;Samples;Min_cycle;Max_cycle;Signal;HPM_P1;HPM_P2
2022/06/18 00:01:34;;;;;;;1.98;1.60;;;20.10;71.20;;;;;;5010531;28;20024;-55
2022/06/18 00:04:08;;;;;;;5.68;2.40;;;20.00;71.40;;;;;;5011039;28;20483;-55
2022/06/18 00:06:47;;;;;;;2.95;1.77;;;20.00;71.50;;;;;;5009717;28;20034;-55
2022/06/18 00:09:13;;;;;;;3.78;2.35;;;19.90;72.20;;;;;;5010888;28;20026;-55
2022/06/18 00:14:24;;;;;;;3.78;1.95;;;19.90;71.70;;;;;;5010917;28;20096;-55
2022/06/18 00:16:49;;;;;;;5.13;2.10;;;19.80;71.70;;;;;;5010835;28;20026;-55
2022/06/18 00:19:15;;;;;;;2.42;2.13;;;19.80;71.80;;;;;;5009525;28;20578;-55
2022/06/18 00:21:41;;;;;;;3.22;2.53;;;19.80;71.90;;;;;;5010079;28;20030;-55
2022/06/18 00:24:17;;;;;;;3.63;2.03;;;19.70;71.80;;;;;;5010613;28;20450;-55
2022/06/18 00:26:43;;;;;;;4.70;2.13;;;19.70;71.90;;;;;;5010566;28;20053;-55
2022/06/18 00:29:12;;;;;;;4.15;2.00;;;19.70;71.90;;;;;;5010846;28;20064;-55
2022/06/18 00:31:38;;;;;;;5.40;2.38;;;19.70;71.90;;;;;;5009914;28;20030;-55
2022/06/18 00:34:03;;;;;;;5.00;2.13;;;19.60;72.00;;;;;;5010484;28;20053;-55
2022/06/18 00:36:29;;;;;;;2.58;2.08;;;19.60;72.10;;;;;;5010664;28;20527;-55
2022/06/18 00:38:54;;;;;;;5.95;2.30;;;19.60;72.20;;;;;;5010460;28;20460;-55
2022/06/18 00:41:25;;;;;;;5.68;2.30;;;19.60;72.10;;;;;;5009723;28;20100;-55
2022/06/18 00:43:58;;;;;;;4.03;1.95;;;19.60;72.10;;;;;;5010378;28;20022;-55
2022/06/18 00:46:27;;;;;;;4.22;2.30;;;19.60;72.00;;;;;;5010225;28;20030;-55
2022/06/18 00:49:21;;;;;;;2.70;1.88;;;19.60;71.90;;;;;;5010241;28;20495;-55
2022/06/18 00:51:55;;;;;;;2.08;1.90;;;19.60;71.90;;;;;;5009364;28;20080;-55
2022/06/18 00:54:33;;;;;;;3.58;2.13;;;19.60;72.40;;;;;;5010176;28;20332;-55
2022/06/18 00:57:22;;;;;;;5.00;2.28;;;19.60;71.60;;;;;;5010307;28;20411;-55
2022/06/18 00:59:53;;;;;;;7.07;2.17;;;19.60;71.30;;;;;;5002324;28;20084;-54
2022/06/18 01:02:23;;;;;;;4.00;2.13;;;19.70;71.40;;;;;;5010634;28;20021;-54
2022/06/18 01:04:49;;;;;;;4.72;1.73;;;19.70;71.40;;;;;;5008924;28;20026;-55
2022/06/18 01:07:32;;;;;;;4.38;2.13;;;19.60;71.40;;;;;;5009874;28;20218;-55
2022/06/18 01:09:59;;;;;;;5.38;2.25;;;19.70;71.30;;;;;;5009447;28;20041;-55
2022/06/18 01:12:25;;;;;;;4.00;2.17;;;19.70;71.40;;;;;;5009962;28;20026;-54
2022/06/18 01:15:00;;;;;;;3.53;2.08;;;19.60;71.30;;;;;;5009945;28;20045;-55
2022/06/18 01:17:25;;;;;;;3.13;2.08;;;19.70;71.30;;;;;;5010533;28;20080;-55
2022/06/18 01:19:51;;;;;;;2.05;1.85;;;19.70;71.30;;;;;;5009515;28;20034;-55
2022/06/18 01:22:52;;;;;;;3.90;2.17;;;19.70;71.30;;;;;;5009881;28;20103;-54
2022/06/18 01:25:18;;;;;;;5.70;2.20;;;19.70;71.20;;;;;;5009880;28;20499;-55
2022/06/18 01:27:43;;;;;;;2.95;1.88;;;19.70;71.10;;;;;;5009880;28;20080;-56
2022/06/18 01:30:14;;;;;;;2.40;1.88;;;19.60;71.30;;;;;;5009330;28;20030;-54
2022/06/18 01:32:42;;;;;;;2.20;1.83;;;19.60;71.30;;;;;;5009844;28;20026;-54
2022/06/18 01:35:10;;;;;;;2.42;1.98;;;19.60;71.50;;;;;;5009916;28;20491;-55
2022/06/18 01:37:36;;;;;;;4.35;1.90;;;19.60;71.30;;;;;;5009782;28;20026;-54
2022/06/18 01:40:03;;;;;;;3.05;2.13;;;19.60;71.40;;;;;;5009166;28;20499;-55
2022/06/18 01:42:47;;;;;;;2.70;1.80;;;19.60;71.50;;;;;;5009716;28;20084;-54
2022/06/18 01:45:18;;;;;;;2.25;1.90;;;19.60;71.50;;;;;;5009963;28;20029;-54
2022/06/18 01:48:01;;;;;;;7.53;2.20;;;19.60;71.60;;;;;;5009672;28;20033;-55
2022/06/18 01:50:34;;;;;;;3.58;2.50;;;19.50;71.70;;;;;;5009073;28;20109;-54
2022/06/18 01:53:13;;;;;;;2.15;1.88;;;19.50;71.90;;;;;;5009641;28;20026;-55
2022/06/18 01:55:45;;;;;;;4.93;2.10;;;19.50;72.10;;;;;;5009604;28;20194;-54
2022/06/18 01:58:16;;;;;;;3.95;2.30;;;19.40;72.20;;;;;;5009673;28;20049;-55
2022/06/18 02:00:44;;;;;;;2.97;2.20;;;19.40;72.30;;;;;;5008218;28;20022;-55
2022/06/18 02:03:11;;;;;;;2.60;2.10;;;19.40;72.40;;;;;;5009867;28;20057;-54
2022/06/18 02:05:37;;;;;;;2.58;1.80;;;19.30;72.50;;;;;;5009600;28;20034;-54
2022/06/18 02:08:04;;;;;;;2.90;1.75;;;19.30;73.10;;;;;;5009540;28;20105;-54
2022/06/18 02:10:56;;;;;;;3.15;2.00;;;19.20;72.80;;;;;;5008846;28;20072;-55
2022/06/18 02:13:25;;;;;;;2.95;2.00;;;19.20;72.80;;;;;;5009447;28;20081;-55
2022/06/18 02:15:53;;;;;;;2.53;2.20;;;19.10;73.50;;;;;;5009184;28;20030;-55
2022/06/18 02:18:19;;;;;;;3.22;2.50;;;19.10;73.20;;;;;;5010849;28;20085;-54
2022/06/18 02:20:50;;;;;;;2.78;2.28;;;19.10;73.40;;;;;;5012591;28;20494;-55
2022/06/18 02:23:17;;;;;;;2.30;2.00;;;19.10;73.20;;;;;;5011596;28;20033;-55
2022/06/18 02:25:43;;;;;;;4.45;2.28;;;19.10;73.40;;;;;;5012864;28;20034;-55
2022/06/18 02:28:22;;;;;;;5.25;2.05;;;19.10;73.20;;;;;;5012865;28;20071;-55
2022/06/18 02:30:48;;;;;;;9.63;2.93;;;19.10;73.20;;;;;;5012116;28;20475;-55
2022/06/18 02:33:36;;;;;;;2.05;1.83;;;19.10;73.20;;;;;;5012912;28;20029;-54
2022/06/18 02:36:24;;;;;;;3.58;2.30;;;19.10;73.20;;;;;;5012857;28;20049;-55
2022/06/18 02:38:58;;;;;;;2.53;1.70;;;19.10;73.20;;;;;;5012545;28;20088;-54
2022/06/18 02:41:24;;;;;;;4.10;2.10;;;19.10;73.00;;;;;;5010658;28;20018;-55
2022/06/18 02:43:50;;;;;;;4.63;2.28;;;19.20;72.90;;;;;;5012857;28;20021;-54
2022/06/18 02:46:16;;;;;;;3.45;1.70;;;19.10;72.70;;;;;;5012511;28;20096;-55
2022/06/18 02:48:42;;;;;;;3.05;2.15;;;19.20;72.50;;;;;;5012376;28;20467;-54
2022/06/18 02:51:12;;;;;;;3.50;2.30;;;19.20;72.50;;;;;;5010451;28;20103;-55
2022/06/18 02:53:37;;;;;;;1.73;1.63;;;19.20;72.40;;;;;;5012359;28;20045;-55
2022/06/18 02:56:05;;;;;;;3.03;2.17;;;19.20;72.30;;;;;;5012233;28;20037;-54
2022/06/18 02:58:42;;;;;;;3.95;2.10;;;19.30;72.10;;;;;;5012179;28;20025;-54
2022/06/18 03:01:16;;;;;;;4.68;1.90;;;19.30;72.00;;;;;;5010202;28;20487;-54
2022/06/18 03:03:47;;;;;;;6.95;2.33;;;19.30;71.90;;;;;;5012620;28;20025;-54
2022/06/18 03:06:14;;;;;;;2.95;1.88;;;19.30;71.90;;;;;;5012096;28;20053;-54
2022/06/18 03:08:40;;;;;;;2.88;1.77;;;19.30;71.70;;;;;;5011995;28;20026;-54
2022/06/18 03:13:54;;;;;;;3.08;2.10;;;19.40;71.50;;;;;;5012311;28;20036;-55
2022/06/18 03:16:22;;;;;;;4.18;1.80;;;19.40;71.50;;;;;;5010558;28;20040;-55
2022/06/18 03:18:50;;;;;;;2.20;1.73;;;19.40;71.40;;;;;;5011861;28;20053;-55
2022/06/18 03:21:45;;;;;;;2.15;1.95;;;19.40;71.30;;;;;;5011418;28;20033;-55
2022/06/18 03:24:10;;;;;;;3.00;1.92;;;19.40;71.60;;;;;;5012151;28;20026;-55
2022/06/18 03:26:37;;;;;;;2.55;2.05;;;19.40;71.30;;;;;;5012124;28;20108;-55
2022/06/18 03:29:04;;;;;;;3.17;2.00;;;19.40;71.60;;;;;;5010734;28;20026;-54
2022/06/18 03:31:29;;;;;;;5.05;1.67;;;19.40;71.50;;;;;;5010897;28;20053;-55
2022/06/18 03:33:55;;;;;;;3.08;2.08;;;19.40;71.20;;;;;;5011763;28;20088;-55
2022/06/18 03:36:21;;;;;;;2.30;1.73;;;19.50;71.20;;;;;;5011698;28;20472;-55
2022/06/18 03:38:49;;;;;;;4.90;2.28;;;19.50;71.10;;;;;;5011470;28;20056;-55
2022/06/18 03:41:15;;;;;;;3.58;1.73;;;19.50;71.10;;;;;;5010788;28;20117;-55
2022/06/18 03:43:40;;;;;;;4.85;2.35;;;19.50;71.10;;;;;;5011214;28;20034;-55
2022/06/18 03:46:09;;;;;;;4.30;2.20;;;19.60;71.40;;;;;;5011343;28;20037;-55
2022/06/18 03:48:40;;;;;;;2.00;1.65;;;19.60;71.10;;;;;;5011234;28;20034;-55
2022/06/18 03:51:06;;;;;;;3.85;2.58;;;19.60;71.00;;;;;;5010600;28;20442;-55
2022/06/18 03:53:31;;;;;;;2.08;1.65;;;19.70;70.90;;;;;;5009873;28;20034;-56
2022/06/18 03:55:57;;;;;;;2.63;1.55;;;19.70;70.80;;;;;;5011061;28;20038;-56
2022/06/18 03:58:23;;;;;;;3.60;1.92;;;19.70;71.00;;;;;;5011007;28;20116;-55
2022/06/18 04:00:50;;;;;;;2.45;1.58;;;19.70;71.00;;;;;;5010474;28;20071;-55
2022/06/18 04:03:16;;;;;;;6.03;2.17;;;19.70;70.90;;;;;;5011030;28;20014;-55
2022/06/18 04:05:41;;;;;;;3.25;2.00;;;19.70;71.00;;;;;;5010901;28;20032;-55
2022/06/18 04:08:07;;;;;;;1.92;1.58;;;19.80;70.90;;;;;;5010962;28;20025;-55
2022/06/18 04:10:32;;;;;;;3.53;1.98;;;19.80;71.00;;;;;;5010466;28;20368;-55
2022/06/18 04:12:58;;;;;;;3.58;2.05;;;19.80;71.10;;;;;;5010855;28;20109;-55
2022/06/18 04:15:24;;;;;;;3.30;1.85;;;19.90;71.20;;;;;;5010575;28;20025;-55
2022/06/18 04:17:49;;;;;;;2.25;1.73;;;19.90;71.20;;;;;;5010782;28;20113;-55
2022/06/18 04:20:24;;;;;;;3.75;1.95;;;19.90;71.10;;;;;;5010121;28;20097;-55
2022/06/18 04:22:50;;;;;;;4.35;2.22;;;19.90;70.90;;;;;;5010673;28;20037;-55
2022/06/18 04:25:16;;;;;;;5.65;2.05;;;20.00;71.00;;;;;;5010830;28;20030;-55
2022/06/18 04:27:42;;;;;;;5.43;1.75;;;20.00;71.00;;;;;;5010862;28;20045;-55
2022/06/18 04:30:08;;;;;;;2.17;1.98;;;20.10;70.90;;;;;;5009976;28;20026;-55
2022/06/18 04:32:36;;;;;;;4.38;1.85;;;20.20;70.70;;;;;;5010553;28;20109;-55
2022/06/18 04:35:03;;;;;;;3.30;2.08;;;20.10;70.60;;;;;;5010469;28;20022;-55
2022/06/18 04:37:29;;;;;;;2.53;1.75;;;20.30;70.50;;;;;;5010489;28;20026;-55
2022/06/18 04:39:54;;;;;;;2.90;1.88;;;20.30;70.20;;;;;;5009727;28;20049;-55
2022/06/18 04:42:20;;;;;;;5.45;1.90;;;20.40;70.10;;;;;;5010024;28;20033;-54
2022/06/18 04:44:46;;;;;;;4.75;2.20;;;20.50;70.20;;;;;;5010571;28;20046;-55
2022/06/18 04:47:11;;;;;;;2.78;1.55;;;20.60;69.80;;;;;;5010344;28;20473;-55
2022/06/18 04:49:37;;;;;;;3.17;1.83;;;20.60;70.00;;;;;;5009696;28;20092;-56
2022/06/18 04:52:03;;;;;;;4.13;1.67;;;20.60;70.00;;;;;;5010319;28;20097;-56
2022/06/18 04:54:28;;;;;;;5.20;1.90;;;20.60;69.80;;;;;;5010147;28;20105;-55
2022/06/18 04:56:54;;;;;;;4.10;2.00;;;20.60;70.00;;;;;;5010303;28;20022;-55
2022/06/18 04:59:20;;;;;;;2.45;1.73;;;20.60;70.20;;;;;;5008884;28;20165;-55
2022/06/18 05:01:56;;;;;;;4.75;2.33;;;20.70;69.90;;;;;;5009753;28;20089;-55
2022/06/18 05:04:22;;;;;;;6.28;2.10;;;20.80;69.70;;;;;;5010218;28;20057;-55
2022/06/18 05:06:47;;;;;;;2.70;1.88;;;20.80;69.70;;;;;;5010025;28;20069;-55
2022/06/18 05:09:13;;;;;;;3.08;1.77;;;20.90;69.70;;;;;;5010163;28;20022;-55
2022/06/18 05:11:38;;;;;;;3.58;2.08;;;21.00;69.50;;;;;;5009628;28;20030;-55
2022/06/18 05:14:04;;;;;;;4.50;1.90;;;21.00;69.40;;;;;;5010079;28;20083;-55
2022/06/18 05:16:29;;;;;;;4.40;2.10;;;21.10;69.30;;;;;;5009999;28;20438;-55
2022/06/18 05:18:55;;;;;;;2.88;1.88;;;21.20;69.40;;;;;;5010455;28;20037;-55
2022/06/18 05:21:20;;;;;;;4.38;2.25;;;21.20;69.50;;;;;;5009501;28;20030;-56
2022/06/18 05:23:46;;;;;;;2.92;1.95;;;21.20;69.70;;;;;;5009934;28;20032;-54
2022/06/18 05:26:14;;;;;;;3.58;2.22;;;21.30;69.30;;;;;;5010290;28;20014;-55
2022/06/18 05:28:40;;;;;;;3.35;1.98;;;21.30;69.50;;;;;;5010106;28;20430;-55
2022/06/18 05:31:05;;;;;;;3.75;2.13;;;21.40;69.30;;;;;;5009302;28;20034;-55
2022/06/18 05:33:31;;;;;;;4.95;2.05;;;21.50;69.10;;;;;;5009859;28;20034;-55
2022/06/18 05:35:57;;;;;;;3.05;2.28;;;21.50;69.40;;;;;;5009768;28;20527;-56
2022/06/18 05:38:24;;;;;;;4.38;1.83;;;21.50;69.30;;;;;;5009804;28;20056;-56
2022/06/18 05:40:50;;;;;;;2.08;1.88;;;21.60;69.50;;;;;;5007781;28;20113;-54
2022/06/18 05:43:16;;;;;;;2.97;2.25;;;21.70;69.60;;;;;;5009878;28;20097;-54
2022/06/18 05:45:42;;;;;;;2.28;2.00;;;21.80;69.70;;;;;;5010004;28;20514;-54
2022/06/18 05:48:09;;;;;;;4.72;2.50;;;21.80;70.10;;;;;;5010100;28;20061;-54
2022/06/18 05:50:34;;;;;;;3.13;2.15;;;21.90;70.10;;;;;;5009189;28;20030;-55
2022/06/18 05:53:00;;;;;;;2.28;1.70;;;21.90;70.10;;;;;;5010495;28;20058;-54
2022/06/18 05:55:26;;;;;;;2.78;1.80;;;21.90;70.20;;;;;;5013316;28;20041;-54
2022/06/18 05:57:55;;;;;;;5.47;1.77;;;22.00;70.20;;;;;;5013535;28;20425;-55
2022/06/18 06:00:24;;;;;;;3.88;2.53;;;22.10;70.20;;;;;;5012731;28;20050;-54
2022/06/18 06:02:49;;;;;;;4.97;2.17;;;22.10;70.10;;;;;;5013344;28;20088;-55
2022/06/18 06:05:15;;;;;;;4.45;2.00;;;22.20;70.00;;;;;;5013252;28;20021;-55
2022/06/18 06:07:44;;;;;;;5.57;2.22;;;22.30;70.30;;;;;;5013349;28;20041;-55
2022/06/18 06:13:08;;;;;;;2.25;1.92;;;22.40;69.60;;;;;;5013358;28;20049;-55
2022/06/18 06:15:35;;;;;;;5.15;1.88;;;22.50;69.40;;;;;;5012760;28;20029;-55
2022/06/18 06:18:00;;;;;;;4.95;2.10;;;22.70;69.50;;;;;;5012965;28;20472;-55
2022/06/18 06:20:30;;;;;;;2.40;2.00;;;22.70;69.20;;;;;;5012442;28;20029;-55
2022/06/18 06:22:55;;;;;;;5.40;2.10;;;22.70;69.60;;;;;;5012875;28;20105;-55
2022/06/18 06:25:21;;;;;;;2.60;1.80;;;22.80;69.20;;;;;;5012848;28;20113;-55
2022/06/18 06:27:46;;;;;;;3.72;2.30;;;22.90;69.30;;;;;;5012778;28;20041;-55
2022/06/18 06:30:13;;;;;;;5.85;2.05;;;23.00;69.40;;;;;;5012006;28;20401;-55
2022/06/18 06:32:39;;;;;;;5.00;2.00;;;23.10;69.30;;;;;;5012634;28;20034;-55
2022/06/18 06:35:05;;;;;;;2.97;1.92;;;23.20;69.50;;;;;;5012697;28;20480;-56
2022/06/18 06:37:31;;;;;;;5.07;2.08;;;23.20;69.80;;;;;;5012551;28;20105;-57
2022/06/18 06:39:57;;;;;;;2.45;2.17;;;23.30;69.70;;;;;;5011974;28;20509;-55
2022/06/18 06:42:22;;;;;;;4.10;2.05;;;23.40;69.30;;;;;;5012553;28;20070;-55
2022/06/18 06:44:48;;;;;;;2.80;1.75;;;23.60;68.60;;;;;;5012530;28;20073;-55
2022/06/18 06:47:13;;;;;;;5.88;2.22;;;23.60;69.20;;;;;;5012820;28;20184;-55
2022/06/18 06:49:39;;;;;;;3.75;2.63;;;23.70;68.00;;;;;;5011976;28;20497;-55
2022/06/18 06:52:04;;;;;;;5.03;2.10;;;23.90;68.30;;;;;;5012359;28;20033;-55
2022/06/18 06:54:30;;;;;;;4.88;2.38;;;23.90;67.60;;;;;;5012257;28;20139;-55
2022/06/18 06:59:39;;;;;;;3.40;2.17;;;24.10;67.70;;;;;;5011597;28;20033;-55
2022/06/18 07:02:20;;;;;;;2.65;1.92;;;24.20;67.70;;;;;;5012754;28;20022;-55
2022/06/18 07:04:45;;;;;;;2.30;2.05;;;24.30;67.60;;;;;;5012118;28;20053;-55
2022/06/18 07:07:12;;;;;;;4.53;2.33;;;24.40;67.40;;;;;;5012268;28;20111;-55
2022/06/18 07:09:39;;;;;;;5.53;2.50;;;24.50;67.60;;;;;;5011453;28;20030;-55
2022/06/18 07:12:05;;;;;;;3.30;2.40;;;24.60;67.10;;;;;;5012411;28;20052;-54
2022/06/18 07:14:31;;;;;;;6.30;2.45;;;24.70;67.20;;;;;;5011801;28;20078;-55
2022/06/18 07:16:56;;;;;;;5.75;2.35;;;24.80;66.80;;;;;;5011915;28;20065;-55
2022/06/18 07:19:22;;;;;;;3.85;2.25;;;24.90;67.10;;;;;;5012061;28;20033;-55
2022/06/18 07:21:51;;;;;;;3.78;2.55;;;24.90;66.90;;;;;;5011293;28;20022;-55
2022/06/18 07:24:16;;;;;;;3.88;2.70;;;25.00;66.90;;;;;;5010415;28;20029;-55
2022/06/18 07:26:42;;;;;;;5.97;2.20;;;25.10;67.00;;;;;;5011752;28;20033;-56
2022/06/18 07:29:07;;;;;;;6.32;2.95;;;25.20;67.00;;;;;;5011584;28;20029;-56
2022/06/18 07:31:33;;;;;;;3.35;2.38;;;25.40;66.60;;;;;;5010986;28;20431;-55
2022/06/18 07:34:01;;;;;;;4.32;2.58;;;25.40;67.20;;;;;;5011584;28;20423;-56
2022/06/18 07:36:27;;;;;;;5.13;2.72;;;25.50;66.80;;;;;;5011492;28;20037;-55
2022/06/18 07:38:53;;;;;;;3.60;2.40;;;25.60;66.20;;;;;;5011369;28;20526;-56
2022/06/18 07:41:20;;;;;;;4.45;2.55;;;25.60;66.40;;;;;;5010793;28;20030;-55
2022/06/18 07:43:53;;;;;;;9.40;2.38;;;25.70;66.50;;;;;;5011446;28;20084;-55
2022/06/18 07:46:19;;;;;;;7.72;2.30;;;25.90;66.50;;;;;;5011479;28;20034;-55
2022/06/18 07:48:44;;;;;;;2.65;2.42;;;26.00;66.20;;;;;;5011392;28;20101;-56
2022/06/18 07:51:11;;;;;;;3.17;2.75;;;26.20;66.30;;;;;;5009390;28;20053;-55
2022/06/18 07:53:37;;;;;;;4.65;2.72;;;26.40;66.20;;;;;;5011134;28;20493;-55
2022/06/18 07:56:03;;;;;;;4.18;2.90;;;26.50;66.10;;;;;;5011086;28;20097;-55
2022/06/18 07:58:29;;;;;;;6.38;3.20;;;26.60;65.50;;;;;;5011228;28;20053;-55
2022/06/18 08:00:56;;;;;;;8.57;3.30;;;26.70;65.20;;;;;;5010416;28;20088;-55
2022/06/18 08:03:22;;;;;;;3.83;2.70;;;26.80;64.80;;;;;;5010957;28;20026;-55
2022/06/18 08:05:48;;;;;;;8.73;2.75;;;27.00;65.50;;;;;;5010987;28;20426;-56
2022/06/18 08:08:15;;;;;;;5.97;2.95;;;27.20;64.50;;;;;;5010933;28;20467;-55
2022/06/18 08:10:44;;;;;;;3.80;2.42;;;27.60;63.90;;;;;;5009245;28;20117;-55
2022/06/18 08:13:10;;;;;;;3.03;2.30;;;28.30;63.60;;;;;;5010930;28;20069;-55
2022/06/18 08:15:35;;;;;;;5.10;2.67;;;29.20;60.60;;;;;;5010280;28;20268;-56
2022/06/18 08:18:01;;;;;;;8.10;2.70;;;30.30;59.40;;;;;;5010741;28;20026;-55
2022/06/18 08:20:29;;;;;;;7.25;2.47;;;31.00;56.70;;;;;;5010147;28;20033;-56
2022/06/18 08:22:55;;;;;;;6.53;2.72;;;31.30;56.80;;;;;;5010562;28;20022;-55
2022/06/18 08:25:23;;;;;;;2.83;2.20;;;32.10;56.10;;;;;;5010959;28;20026;-56
2022/06/18 08:27:50;;;;;;;7.22;2.50;;;32.60;55.00;;;;;;5011172;28;20421;-56
2022/06/18 08:30:17;;;;;;;4.32;2.72;;;33.40;53.00;;;;;;5010059;28;20029;-55
2022/06/18 08:32:44;;;;;;;5.05;2.30;;;33.50;52.80;;;;;;5010545;28;20471;-55
2022/06/18 08:35:10;;;;;;;6.25;2.50;;;34.10;51.90;;;;;;5010333;28;20034;-55
2022/06/18 08:37:36;;;;;;;6.15;2.80;;;34.30;51.80;;;;;;5009475;28;20520;-55
2022/06/18 08:40:34;;;;;;;6.00;2.22;;;34.80;51.60;;;;;;5008518;28;20475;-55
2022/06/18 08:43:04;;;;;;;14.63;2.42;;;35.00;50.50;;;;;;5010400;28;20510;-55
2022/06/18 08:45:41;;;;;;;5.93;2.42;;;35.40;50.20;;;;;;5009224;28;20156;-54
2022/06/18 08:48:13;;;;;;;3.80;2.30;;;35.80;49.50;;;;;;5009310;28;20026;-54
2022/06/18 08:50:51;;;;;;;2.45;2.10;;;36.20;49.40;;;;;;5009777;28;20037;-55
2022/06/18 08:53:42;;;;;;;3.15;2.28;;;36.60;48.30;;;;;;5010319;28;20065;-55
2022/06/18 08:56:14;;;;;;;7.30;2.05;;;36.30;49.70;;;;;;5010103;28;20026;-55
2022/06/18 08:59:28;;;;;;;4.45;2.10;;;37.40;47.70;;;;;;5010231;28;20029;-55
2022/06/18 09:02:18;;;;;;;4.30;2.40;;;37.80;47.60;;;;;;5002573;28;20559;-55
2022/06/18 09:05:19;;;;;;;8.93;2.60;;;38.10;47.00;;;;;;5010532;28;20024;-55
2022/06/18 09:07:52;;;;;;;4.72;2.08;;;38.20;47.30;;;;;;5010289;28;20029;-55
2022/06/18 09:10:37;;;;;;;4.10;2.28;;;38.30;46.30;;;;;;5009553;28;20014;-55
2022/06/18 09:13:17;;;;;;;4.60;2.03;;;38.60;46.00;;;;;;5010050;28;20372;-55
2022/06/18 09:15:50;;;;;;;4.65;2.17;;;39.10;45.60;;;;;;5009935;28;20554;-55
2022/06/18 09:18:21;;;;;;;3.15;2.17;;;38.80;46.30;;;;;;5010023;28;20032;-57
2022/06/18 09:20:52;;;;;;;5.63;2.60;;;39.10;46.10;;;;;;5009391;28;20112;-56
2022/06/18 09:23:26;;;;;;;5.95;2.50;;;39.50;45.10;;;;;;5009879;28;20033;-56
2022/06/18 09:25:54;;;;;;;6.78;2.60;;;39.10;45.90;;;;;;5010111;28;20030;-56
2022/06/18 09:28:37;;;;;;;6.80;2.35;;;39.00;45.10;;;;;;5013537;28;20036;-56
2022/06/18 09:31:13;;;;;;;6.10;2.22;;;39.70;44.70;;;;;;5013173;28;20029;-56
2022/06/18 09:33:49;;;;;;;6.75;2.80;;;39.60;45.20;;;;;;5013894;28;20038;-56
2022/06/18 09:36:23;;;;;;;4.00;2.20;;;39.50;45.00;;;;;;5013923;28;20038;-56
2022/06/18 09:39:08;;;;;;;4.72;2.40;;;40.20;44.50;;;;;;5013827;28;20018;-56
2022/06/18 09:42:00;;;;;;;6.22;2.45;;;40.60;44.30;;;;;;5013234;28;20480;-56
2022/06/18 09:44:40;;;;;;;2.58;2.30;;;40.20;44.20;;;;;;5013807;28;20025;-56
2022/06/18 09:47:35;;;;;;;5.63;2.30;;;40.40;44.10;;;;;;5013717;28;20080;-56
2022/06/18 09:50:02;;;;;;;6.40;3.00;;;40.60;43.20;;;;;;5009579;28;20046;-56
2022/06/18 09:52:36;;;;;;;6.72;2.53;;;40.80;43.10;;;;;;5013408;28;20041;-56
2022/06/18 09:55:09;;;;;;;4.60;2.58;;;40.60;43.50;;;;;;5013475;28;20715;-56
2022/06/18 09:57:40;;;;;;;6.18;2.92;;;40.20;44.50;;;;;;5013532;28;20022;-56
2022/06/18 10:00:08;;;;;;;5.57;2.45;;;39.50;44.70;;;;;;5012857;28;20391;-56
2022/06/18 10:02:41;;;;;;;9.70;2.97;;;39.90;44.00;;;;;;5013275;28;20526;-55
2022/06/18 10:08:00;;;;;;;4.65;2.95;;;40.90;44.00;;;;;;5013458;28;20618;-55
2022/06/18 10:10:28;;;;;;;6.72;2.80;;;41.00;43.80;;;;;;5012707;28;20046;-55
2022/06/18 10:12:57;;;;;;;3.97;2.20;;;40.60;43.90;;;;;;5013281;28;20044;-55
2022/06/18 10:15:24;;;;;;;;;;;40.10;44.40;;;;;;5013414;28;20095;-55
2022/06/18 10:18:10;;;;;;;4.85;2.63;;;39.90;45.10;;;;;;5013189;28;19912;-55
2022/06/18 10:20:52;;;;;;;7.10;2.85;;;41.00;43.70;;;;;;5012679;28;20105;-55
2022/06/18 10:23:32;;;;;;;5.97;3.40;;;41.00;44.40;;;;;;5012944;28;20018;-56
2022/06/18 10:26:25;;;;;;;8.00;3.03;;;40.80;43.50;;;;;;5013007;28;20041;-55
2022/06/18 10:28:51;;;;;;;6.45;2.90;;;40.70;43.60;;;;;;5012856;28;20483;-55
2022/06/18 10:31:34;;;;;;;8.68;3.40;;;40.40;43.30;;;;;;5012230;28;20037;-56
2022/06/18 10:34:25;;;;;;;9.18;3.28;;;40.20;43.80;;;;;;5012846;28;20439;-56
2022/06/18 10:37:02;;;;;;;9.30;2.92;;;40.60;44.00;;;;;;5011279;28;20491;-56
2022/06/18 10:39:48;;;;;;;5.25;2.95;;;40.70;44.00;;;;;;5011930;28;20033;-56
2022/06/18 10:42:36;;;;;;;6.25;3.13;;;41.00;43.20;;;;;;5012593;28;20053;-56
2022/06/18 10:45:34;;;;;;;7.28;2.95;;;40.10;43.40;;;;;;5012572;28;20026;-56
2022/06/18 10:48:00;;;;;;;7.82;3.13;;;39.90;44.90;;;;;;5012626;28;20030;-56
2022/06/18 10:50:26;;;;;;;6.68;3.33;;;40.60;43.90;;;;;;5011989;28;20018;-56
2022/06/18 10:53:02;;;;;;;11.32;2.92;;;40.80;43.20;;;;;;5011977;28;20026;-56
2022/06/18 10:55:28;;;;;;;11.50;3.47;;;40.90;43.20;;;;;;5012254;28;20087;-56
2022/06/18 10:58:04;;;;;;;7.00;3.28;;;40.60;43.30;;;;;;5012370;28;20076;-56
2022/06/18 11:00:30;;;;;;;6.75;2.95;;;40.40;44.20;;;;;;5011583;28;20022;-56
2022/06/18 11:02:59;;;;;;;10.40;3.42;;;40.40;43.80;;;;;;5011238;28;20143;-56
2022/06/18 11:05:27;;;;;;;6.05;3.03;;;40.30;43.60;;;;;;5012267;28;20033;-56
2022/06/18 11:07:54;;;;;;;9.27;3.10;;;40.70;43.70;;;;;;5011220;28;20033;-55
2022/06/18 11:10:43;;;;;;;8.07;3.42;;;40.90;43.50;;;;;;5011418;28;20263;-55
2022/06/18 11:13:20;;;;;;;5.90;2.90;;;40.40;43.10;;;;;;5011977;28;20026;-55
2022/06/18 11:15:45;;;;;;;11.45;3.72;;;41.00;43.40;;;;;;5011691;28;20072;-55
2022/06/18 11:18:20;;;;;;;10.15;4.03;;;40.90;43.50;;;;;;5011955;28;20120;-56
2022/06/18 11:20:59;;;;;;;6.95;3.80;;;40.20;43.70;;;;;;5011251;28;20017;-55
2022/06/18 11:23:25;;;;;;;6.17;3.53;;;40.00;43.90;;;;;;5011876;28;20208;-56
2022/06/18 11:25:54;;;;;;;8.27;3.45;;;40.30;43.70;;;;;;5012155;28;20529;-55
2022/06/18 11:28:21;;;;;;;8.15;3.35;;;40.60;43.90;;;;;;5010455;28;20022;-55
2022/06/18 11:30:49;;;;;;;8.25;3.47;;;40.50;43.60;;;;;;5011037;28;20045;-55
2022/06/18 11:33:19;;;;;;;10.38;3.72;;;40.10;44.30;;;;;;5011789;28;20384;-55
2022/06/18 11:35:50;;;;;;;6.18;3.72;;;39.60;43.60;;;;;;5011521;28;20033;-55
2022/06/18 11:38:29;;;;;;;11.85;3.63;;;39.80;44.20;;;;;;5011925;28;20049;-55
2022/06/18 11:40:59;;;;;;;8.23;3.58;;;40.20;44.60;;;;;;5010884;28;20034;-55
2022/06/18 11:43:47;;;;;;;12.60;4.10;;;39.90;44.10;;;;;;5011640;28;20022;-55
2022/06/18 11:46:21;;;;;;;12.23;4.20;;;40.30;43.60;;;;;;5011381;28;20041;-55
2022/06/18 11:49:03;;;;;;;9.45;3.30;;;39.70;43.50;;;;;;5011299;28;20128;-55
2022/06/18 11:51:36;;;;;;;10.15;3.72;;;39.90;44.60;;;;;;5009705;28;20538;-56
2022/06/18 11:54:10;;;;;;;10.45;3.70;;;40.10;44.00;;;;;;5009861;28;20030;-55
2022/06/18 11:56:55;;;;;;;9.85;4.40;;;40.20;43.20;;;;;;5011198;28;20029;-55
2022/06/18 11:59:20;;;;;;;11.02;3.85;;;39.70;44.10;;;;;;5009829;28;20026;-55
2022/06/18 12:01:51;;;;;;;7.78;4.03;;;39.40;45.30;;;;;;5010393;28;20357;-55
2022/06/18 12:04:38;;;;;;;14.45;4.18;;;39.10;44.50;;;;;;5011184;28;20029;-55
2022/06/18 12:07:08;;;;;;;11.32;4.10;;;38.70;44.60;;;;;;5011021;28;20034;-56
2022/06/18 12:09:33;;;;;;;14.85;4.32;;;38.40;46.00;;;;;;5010345;28;20613;-55
2022/06/18 12:12:39;;;;;;;16.85;4.28;;;38.30;44.90;;;;;;5067158;28;20445;-54
2022/06/18 12:15:23;;;;;;;10.50;4.00;;;38.00;45.30;;;;;;5067434;28;20036;-55
2022/06/18 12:18:14;;;;;;;10.90;3.75;;;37.60;46.70;;;;;;5067401;28;20025;-54
2022/06/18 12:21:06;;;;;;;12.40;3.83;;;37.80;46.30;;;;;;5066607;28;20029;-54
2022/06/18 12:23:35;;;;;;;12.70;4.18;;;37.80;45.30;;;;;;5065746;28;20048;-55
2022/06/18 12:26:21;;;;;;;7.05;3.58;;;37.60;45.50;;;;;;5066981;28;20032;-53
2022/06/18 12:29:21;;;;;;;8.88;4.20;;;37.30;45.90;;;;;;5065508;28;20486;-54
2022/06/18 12:32:18;;;;;;;9.13;3.90;;;36.70;46.20;;;;;;5066195;28;20025;-53
2022/06/18 12:34:57;;;;;;;14.05;5.00;;;36.00;47.60;;;;;;5066711;28;20186;-54
2022/06/18 12:37:47;;;;;;;12.02;4.25;;;35.90;48.30;;;;;;5066728;28;20028;-53
2022/06/18 12:40:37;;;;;;;10.18;3.72;;;36.20;48.30;;;;;;5066163;28;20535;-54
2022/06/18 12:43:06;;;;;;;9.45;4.20;;;36.40;47.90;;;;;;5066717;28;20375;-54
2022/06/18 12:45:53;;;;;;;12.13;4.55;;;36.70;47.80;;;;;;5066388;28;20035;-53
2022/06/18 12:48:49;;;;;;;13.85;4.70;;;36.50;46.70;;;;;;5066326;28;20425;-53
2022/06/18 12:51:31;;;;;;;14.68;4.75;;;36.60;46.70;;;;;;5065729;28;20152;-53
2022/06/18 12:54:13;;;;;;;13.13;4.45;;;36.70;47.10;;;;;;5066441;28;20029;-54
2022/06/18 12:56:47;;;;;;;14.20;4.80;;;36.70;47.40;;;;;;5066475;28;20071;-54
2022/06/18 12:59:31;;;;;;;18.15;4.60;;;36.50;47.00;;;;;;5066192;28;20047;-54
2022/06/18 13:02:19;;;;;;;12.82;5.13;;;36.60;47.80;;;;;;5064693;28;20025;-54
2022/06/18 13:05:14;;;;;;;14.40;5.25;;;36.70;47.80;;;;;;5066087;28;20383;-53
2022/06/18 13:07:58;;;;;;;14.45;4.55;;;36.60;47.10;;;;;;5065939;28;20025;-54
2022/06/18 13:10:41;;;;;;;18.80;5.00;;;36.40;46.40;;;;;;5065005;28;20469;-54
2022/06/18 13:13:27;;;;;;;9.45;4.22;;;36.20;46.70;;;;;;5066086;28;20029;-54
2022/06/18 13:16:17;;;;;;;17.30;5.32;;;36.20;47.10;;;;;;5065958;28;20060;-56
2022/06/18 13:19:06;;;;;;;11.02;5.10;;;36.10;47.00;;;;;;5065761;28;20025;-54
2022/06/18 13:21:31;;;;;;;10.20;4.20;;;36.10;47.40;;;;;;5062560;28;20028;-54
2022/06/18 13:30:07;;;;;;;10.13;4.60;;;35.90;47.80;;;;;;5031623;28;20034;-53